createdAt,value
2022-12-24T00:00:03.941Z,2.76
2022-12-24T00:02:36.653Z,2.78
2022-12-24T00:05:08.495Z,2.75
2022-12-24T00:07:37.787Z,2.79
2022-12-24T00:10:07.795Z,2.79
2022-12-24T00:12:37.119Z,2.80
2022-12-24T00:15:08.408Z,2.70
2022-12-24T00:17:37.737Z,2.65
2022-12-24T00:20:10.474Z,2.65
2022-12-24T00:22:39.589Z,2.71
2022-12-24T00:25:09.154Z,2.72
2022-12-24T00:27:38.873Z,2.62
2022-12-24T00:30:09.235Z,2.61
2022-12-24T00:32:39.154Z,2.36
2022-12-24T00:35:10.504Z,2.41
2022-12-24T00:37:40.359Z,2.51
2022-12-24T00:40:10.804Z,2.45
2022-12-24T00:42:41.419Z,2.39
2022-12-24T00:45:12.109Z,2.39
2022-12-24T00:47:41.521Z,2.38
2022-12-24T00:50:12.315Z,2.41
2022-12-24T00:52:41.593Z,2.37
2022-12-24T00:55:11.822Z,2.39
2022-12-24T00:57:42.977Z,2.41
2022-12-24T01:00:12.915Z,2.45
2022-12-24T01:02:42.159Z,2.39
2022-12-24T01:05:12.977Z,2.37
2022-12-24T01:07:44.991Z,2.36
2022-12-24T01:10:16.591Z,2.34
2022-12-24T01:12:46.155Z,2.39
2022-12-24T01:15:16.694Z,2.36
2022-12-24T01:17:45.833Z,2.31
2022-12-24T01:20:18.405Z,2.30
2022-12-24T01:22:49.092Z,2.31
2022-12-24T01:25:18.394Z,2.29
2022-12-24T01:27:47.525Z,2.31
2022-12-24T01:30:16.829Z,2.24
2022-12-24T01:32:45.947Z,2.13
2022-12-24T01:35:16.592Z,2.12
2022-12-24T01:37:45.768Z,2.04
2022-12-24T01:40:35.103Z,2.00
2022-12-24T01:43:21.730Z,1.94
2022-12-24T01:45:52.488Z,1.90
2022-12-24T01:48:27.974Z,1.94
2022-12-24T01:51:04.046Z,1.94
2022-12-24T01:53:36.285Z,1.83
2022-12-24T01:56:07.966Z,1.88
2022-12-24T01:58:39.299Z,1.85
2022-12-24T02:01:09.048Z,1.86
2022-12-24T02:03:38.372Z,1.79
2022-12-24T02:06:12.157Z,1.81
2022-12-24T02:08:41.696Z,1.82
2022-12-24T02:11:15.366Z,1.53
2022-12-24T02:13:46.603Z,1.63
2022-12-24T02:16:25.478Z,1.72
2022-12-24T02:19:06.521Z,1.60
2022-12-24T02:21:59.475Z,1.60
2022-12-24T02:25:05.907Z,1.64
2022-12-24T02:27:43.669Z,1.59
2022-12-24T02:30:16.751Z,1.58
2022-12-24T02:32:48.345Z,1.43
2022-12-24T02:35:21.989Z,1.48
2022-12-24T02:37:57.886Z,1.49
2022-12-24T02:40:31.321Z,1.49
2022-12-24T02:43:06.461Z,1.50
2022-12-24T02:45:38.373Z,1.38
2022-12-24T02:48:08.574Z,1.36
2022-12-24T02:50:37.763Z,1.38
2022-12-24T02:53:10.986Z,1.41
2022-12-24T02:55:50.519Z,1.29
2022-12-24T02:58:35.582Z,1.32
2022-12-24T03:01:18.089Z,1.31
2022-12-24T03:04:01.063Z,1.28
2022-12-24T03:06:40.687Z,1.24
2022-12-24T03:09:20.979Z,1.24
2022-12-24T03:11:57.234Z,1.21
2022-12-24T03:14:28.129Z,1.24
2022-12-24T03:17:00.479Z,1.23
2022-12-24T03:19:33.036Z,1.28
2022-12-24T03:22:05.832Z,1.27
2022-12-24T03:24:34.987Z,1.31
2022-12-24T03:27:07.234Z,1.32
2022-12-24T03:29:36.552Z,1.34
2022-12-24T03:32:07.272Z,1.31
2022-12-24T03:34:36.495Z,1.32
2022-12-24T03:37:05.929Z,1.32
2022-12-24T03:39:35.057Z,1.29
2022-12-24T03:42:05.200Z,1.25
2022-12-24T03:44:34.292Z,1.27
2022-12-24T03:47:03.528Z,1.23
2022-12-24T03:49:34.690Z,1.18
2022-12-24T03:52:04.089Z,1.22
2022-12-24T03:54:33.868Z,1.24
2022-12-24T03:57:04.506Z,1.29
2022-12-24T03:59:33.766Z,1.32
2022-12-24T04:02:03.042Z,1.38
2022-12-24T04:04:37.152Z,1.52
2022-12-24T04:07:08.118Z,1.56
2022-12-24T04:09:37.345Z,1.47
2022-12-24T04:12:07.242Z,1.55
2022-12-24T04:14:36.464Z,1.54
2022-12-24T04:17:05.776Z,1.54
2022-12-24T04:19:36.653Z,1.52
2022-12-24T04:22:05.782Z,1.56
2022-12-24T04:24:36.134Z,1.59
2022-12-24T04:27:05.444Z,1.65
2022-12-24T04:29:34.502Z,1.72
2022-12-24T04:32:03.740Z,1.80
2022-12-24T04:34:32.854Z,1.81
2022-12-24T04:37:04.013Z,1.63
2022-12-24T04:39:33.673Z,1.64
2022-12-24T04:42:02.848Z,1.63
2022-12-24T04:44:32.317Z,1.58
2022-12-24T04:47:01.443Z,1.54
2022-12-24T04:49:30.810Z,1.44
2022-12-24T04:52:05.994Z,1.52
2022-12-24T04:54:36.752Z,1.47
2022-12-24T04:57:06.157Z,1.44
2022-12-24T04:59:35.236Z,1.36
2022-12-24T05:02:05.808Z,1.38
2022-12-24T05:04:35.731Z,1.41
2022-12-24T05:07:06.970Z,1.37
2022-12-24T05:09:37.773Z,1.40
2022-12-24T05:12:07.302Z,1.37
2022-12-24T05:14:36.516Z,1.43
2022-12-24T05:17:05.672Z,1.42
2022-12-24T05:19:34.992Z,1.42
2022-12-24T05:22:28.836Z,1.45
2022-12-24T05:25:16.927Z,1.53
2022-12-24T05:27:51.024Z,1.56
2022-12-24T05:30:20.822Z,1.64
2022-12-24T05:32:50.102Z,1.63
2022-12-24T05:35:19.315Z,1.69
2022-12-24T05:37:48.595Z,1.67
2022-12-24T05:40:19.631Z,1.64
2022-12-24T05:42:48.749Z,1.59
2022-12-24T05:45:18.248Z,1.63
2022-12-24T05:47:47.481Z,1.59
2022-12-24T05:50:16.696Z,1.53
2022-12-24T05:52:47.002Z,1.49
2022-12-24T05:55:16.321Z,1.53
2022-12-24T05:57:47.320Z,1.62
2022-12-24T06:00:17.056Z,1.72
2022-12-24T06:02:47.066Z,1.77
2022-12-24T06:05:16.408Z,1.81
2022-12-24T06:07:45.570Z,1.88
2022-12-24T06:10:14.701Z,1.90
2022-12-24T06:12:44.386Z,1.90
2022-12-24T06:15:20.310Z,1.93
2022-12-24T06:17:53.209Z,1.96
2022-12-24T06:20:22.503Z,1.97
2022-12-24T06:22:52.209Z,2.02
2022-12-24T06:25:21.440Z,2.02
2022-12-24T06:27:50.669Z,2.07
2022-12-24T06:30:21.543Z,2.15
2022-12-24T06:32:51.395Z,2.19
2022-12-24T06:35:20.776Z,2.25
2022-12-24T06:37:50.661Z,2.27
2022-12-24T06:40:20.633Z,2.31
2022-12-24T06:42:49.895Z,2.37
2022-12-24T06:45:20.851Z,2.43
2022-12-24T06:47:50.164Z,2.51
2022-12-24T06:50:19.572Z,2.61
2022-12-24T06:52:48.895Z,2.72
2022-12-24T06:55:19.479Z,2.85
2022-12-24T06:57:49.287Z,2.85
2022-12-24T07:00:19.948Z,2.95
2022-12-24T07:02:50.824Z,3.00
2022-12-24T07:05:20.494Z,2.94
2022-12-24T07:07:50.093Z,2.87
2022-12-24T07:10:20.352Z,3.04
2022-12-24T07:12:50.644Z,2.83
2022-12-24T07:15:19.802Z,2.98
2022-12-24T07:17:50.952Z,2.89
2022-12-24T07:20:20.459Z,2.99
2022-12-24T07:22:49.968Z,3.08
2022-12-24T07:25:19.293Z,3.20
2022-12-24T07:27:48.605Z,3.29
2022-12-24T07:30:18.299Z,3.43
2022-12-24T07:32:47.560Z,3.58
2022-12-24T07:35:18.398Z,3.81
2022-12-24T07:37:47.792Z,3.98
2022-12-24T07:40:20.615Z,4.13
2022-12-24T07:43:13.097Z,4.30
2022-12-24T07:45:42.948Z,4.43
2022-12-24T07:48:13.349Z,4.42
2022-12-24T07:50:44.094Z,4.29
2022-12-24T07:53:13.413Z,4.26
2022-12-24T07:55:42.608Z,4.15
2022-12-24T07:58:11.897Z,4.35
2022-12-24T08:00:41.123Z,4.23
2022-12-24T08:03:18.303Z,4.06
2022-12-24T08:05:50.260Z,4.15
2022-12-24T08:08:19.473Z,3.65
2022-12-24T08:10:48.649Z,3.63
2022-12-24T08:13:17.950Z,3.89
2022-12-24T08:15:47.595Z,3.94
2022-12-24T08:18:16.812Z,4.06
2022-12-24T08:20:49.939Z,3.96
2022-12-24T08:23:19.330Z,4.20
2022-12-24T08:25:50.309Z,4.21
2022-12-24T08:28:21.572Z,4.24
2022-12-24T08:30:52.185Z,4.32
2022-12-24T08:33:22.450Z,4.27
2022-12-24T08:35:55.091Z,4.33
2022-12-24T08:38:24.649Z,4.53
2022-12-24T08:40:55.493Z,4.64
2022-12-24T08:43:25.781Z,4.72
2022-12-24T08:45:55.487Z,4.86
2022-12-24T08:48:24.597Z,5.00
2022-12-24T08:50:55.187Z,5.11
2022-12-24T08:53:24.254Z,5.17
2022-12-24T08:55:56.195Z,5.30
2022-12-24T08:58:25.855Z,5.38
2022-12-24T09:00:55.148Z,5.48
2022-12-24T09:03:27.780Z,5.54
2022-12-24T09:05:59.478Z,5.63
2022-12-24T09:08:29.426Z,5.65
2022-12-24T09:10:58.539Z,5.59
2022-12-24T09:13:27.757Z,5.64
2022-12-24T09:15:57.250Z,5.63
2022-12-24T09:18:26.868Z,5.65
2022-12-24T09:21:03.133Z,5.26
2022-12-24T09:23:34.000Z,5.60
2022-12-24T09:26:07.070Z,5.53
2022-12-24T09:28:36.666Z,5.83
2022-12-24T09:31:07.365Z,5.27
2022-12-24T09:33:38.661Z,5.15
2022-12-24T09:36:10.112Z,4.99
2022-12-24T09:38:40.483Z,4.83
2022-12-24T09:41:24.130Z,4.82
2022-12-24T09:44:01.085Z,4.82
2022-12-24T09:46:34.074Z,4.74
2022-12-24T09:49:08.548Z,4.82
2022-12-24T09:51:43.511Z,4.80
2022-12-24T09:54:17.829Z,4.64
2022-12-24T09:56:48.953Z,4.72
2022-12-24T09:59:21.480Z,4.97
2022-12-24T10:01:52.468Z,4.84
2022-12-24T10:04:28.594Z,4.74
2022-12-24T10:07:07.696Z,4.88
2022-12-24T10:09:50.727Z,5.05
2022-12-24T10:12:24.723Z,5.12
2022-12-24T10:15:03.379Z,5.19
2022-12-24T10:17:47.324Z,5.28
2022-12-24T10:20:43.759Z,5.31
2022-12-24T10:23:21.360Z,5.44
2022-12-24T10:25:58.319Z,5.60
2022-12-24T10:28:34.000Z,5.55
2022-12-24T10:31:07.495Z,5.64
2022-12-24T10:33:43.994Z,5.62
2022-12-24T10:36:18.773Z,5.70
2022-12-24T10:38:49.464Z,5.70
2022-12-24T10:41:18.917Z,5.84
2022-12-24T10:43:50.364Z,5.95
2022-12-24T10:46:22.883Z,6.06
2022-12-24T10:48:56.900Z,6.18
2022-12-24T10:51:36.992Z,6.30
2022-12-24T10:54:19.518Z,6.37
2022-12-24T10:56:54.042Z,6.52
2022-12-24T10:59:28.917Z,6.61
2022-12-24T11:02:00.007Z,6.74
2022-12-24T11:04:31.903Z,6.79
2022-12-24T11:07:02.501Z,6.96
2022-12-24T11:09:35.436Z,7.13
2022-12-24T11:12:09.676Z,7.36
2022-12-24T11:14:40.929Z,7.53
2022-12-24T11:17:22.537Z,7.71
2022-12-24T11:19:52.611Z,7.86
2022-12-24T11:22:26.714Z,7.91
2022-12-24T11:25:05.233Z,8.01
2022-12-24T11:27:41.985Z,8.11
2022-12-24T11:30:32.094Z,8.23
2022-12-24T11:33:22.044Z,8.42
2022-12-24T11:35:55.808Z,8.57
2022-12-24T11:38:41.957Z,8.62
2022-12-24T11:41:14.099Z,8.65
2022-12-24T11:43:48.610Z,8.73
2022-12-24T11:46:23.862Z,8.85
2022-12-24T11:49:25.930Z,8.99
2022-12-24T11:52:25.902Z,9.06
2022-12-24T11:55:19.511Z,9.26
2022-12-24T11:58:02.581Z,9.41
2022-12-24T12:00:32.330Z,9.45
2022-12-24T12:03:07.034Z,9.55
2022-12-24T12:05:38.553Z,9.64
2022-12-24T12:08:16.335Z,9.75
2022-12-24T12:10:47.432Z,9.77
2022-12-24T12:13:23.106Z,9.86
2022-12-24T12:16:03.068Z,9.80
2022-12-24T12:18:38.075Z,9.86
2022-12-24T12:21:12.685Z,9.86
2022-12-24T12:23:47.636Z,9.89
2022-12-24T12:26:23.813Z,9.93
2022-12-24T12:28:58.917Z,9.99
2022-12-24T12:31:34.452Z,10.01
2022-12-24T12:34:09.917Z,9.97
2022-12-24T12:36:45.469Z,9.98
2022-12-24T12:39:14.775Z,9.79
2022-12-24T12:41:56.587Z,9.77
2022-12-24T12:44:53.450Z,9.77
2022-12-24T12:47:51.404Z,9.64
2022-12-24T12:50:27.156Z,9.73
2022-12-24T12:53:09.248Z,9.73
2022-12-24T12:55:48.250Z,9.68
2022-12-24T12:58:24.873Z,9.67
2022-12-24T13:01:01.976Z,9.63
2022-12-24T13:04:07.203Z,9.59
2022-12-24T13:07:14.162Z,9.52
2022-12-24T13:10:07.856Z,9.43
2022-12-24T13:12:54.298Z,9.37
2022-12-24T13:15:42.125Z,9.21
2022-12-24T13:18:29.564Z,9.37
2022-12-24T13:20:58.944Z,9.46
2022-12-24T13:23:29.754Z,9.51
2022-12-24T13:26:00.652Z,9.52
2022-12-24T13:28:35.843Z,9.54
2022-12-24T13:31:30.516Z,9.53
2022-12-24T13:34:04.288Z,9.48
2022-12-24T13:37:25.025Z,9.48
2022-12-24T13:40:18.986Z,9.39
2022-12-24T13:42:53.551Z,9.37
2022-12-24T13:45:48.389Z,9.25
2022-12-24T13:48:34.318Z,9.21
2022-12-24T13:51:21.644Z,9.08
2022-12-24T13:53:51.363Z,9.06
2022-12-24T13:56:27.361Z,9.07
2022-12-24T13:59:11.550Z,9.04
2022-12-24T14:01:43.615Z,9.00
2022-12-24T14:04:27.494Z,8.95
2022-12-24T14:07:02.905Z,8.83
2022-12-24T14:09:33.641Z,8.83
2022-12-24T14:12:34.927Z,8.74
2022-12-24T14:15:37.425Z,8.66
2022-12-24T14:18:07.436Z,8.67
2022-12-24T14:20:39.094Z,8.61
2022-12-24T14:23:25.714Z,8.66
2022-12-24T14:25:55.626Z,8.63
2022-12-24T14:28:31.753Z,8.63
2022-12-24T14:31:05.729Z,8.57
2022-12-24T14:33:36.567Z,8.38
2022-12-24T14:36:06.361Z,8.45
2022-12-24T14:39:03.509Z,8.38
2022-12-24T14:41:47.740Z,8.34
2022-12-24T14:44:32.453Z,8.31
2022-12-24T14:47:18.279Z,8.27
2022-12-24T14:50:05.263Z,8.20
2022-12-24T14:53:04.679Z,8.11
2022-12-24T14:55:39.605Z,8.22
2022-12-24T14:58:25.790Z,8.17
2022-12-24T15:00:57.651Z,8.13
2022-12-24T15:03:32.189Z,7.79
2022-12-24T15:06:05.551Z,7.84
2022-12-24T15:08:58.029Z,7.73
2022-12-24T15:11:29.231Z,7.86
2022-12-24T15:14:01.211Z,7.68
2022-12-24T15:16:35.086Z,7.70
2022-12-24T15:19:08.236Z,7.71
2022-12-24T15:21:41.763Z,7.59
2022-12-24T15:24:27.665Z,7.57
2022-12-24T15:26:59.268Z,7.58
2022-12-24T15:29:30.897Z,7.63
2022-12-24T15:32:05.304Z,7.64
2022-12-24T15:34:38.891Z,7.64
2022-12-24T15:37:15.652Z,7.58
2022-12-24T15:39:46.459Z,7.56
2022-12-24T15:42:22.908Z,7.56
2022-12-24T15:45:00.988Z,7.52
2022-12-24T15:47:38.618Z,7.62
2022-12-24T15:50:17.390Z,7.67
2022-12-24T15:52:47.831Z,7.71
2022-12-24T15:55:41.601Z,7.76
2022-12-24T15:58:28.201Z,7.82
2022-12-24T16:01:07.387Z,7.85
2022-12-24T16:03:38.271Z,7.90
2022-12-24T16:06:08.903Z,7.96
2022-12-24T16:08:40.297Z,8.02
2022-12-24T16:11:17.884Z,7.96
2022-12-24T16:14:02.599Z,7.99
2022-12-24T16:16:37.179Z,7.95
2022-12-24T16:19:08.856Z,7.96
2022-12-24T16:21:41.283Z,8.03
2022-12-24T16:24:18.003Z,8.08
2022-12-24T16:26:48.299Z,7.97
2022-12-24T16:29:20.018Z,8.07
2022-12-24T16:31:52.790Z,8.04
2022-12-24T16:34:24.964Z,7.99
2022-12-24T16:36:54.421Z,8.00
2022-12-24T16:39:26.039Z,8.02
2022-12-24T16:42:13.990Z,7.95
2022-12-24T16:44:45.403Z,7.89
2022-12-24T16:47:19.238Z,7.84
2022-12-24T16:49:48.538Z,7.81
2022-12-24T16:52:22.686Z,7.81
2022-12-24T16:54:52.125Z,7.82
2022-12-24T16:57:23.449Z,7.79
2022-12-24T16:59:54.347Z,7.77
2022-12-24T17:02:26.775Z,7.88
2022-12-24T17:04:56.981Z,7.93
2022-12-24T17:07:26.424Z,7.90
2022-12-24T17:09:55.969Z,7.89
2022-12-24T17:12:25.481Z,7.94
2022-12-24T17:14:56.327Z,7.91
2022-12-24T17:17:28.488Z,7.98
2022-12-24T17:20:00.968Z,7.94
2022-12-24T17:22:30.177Z,7.85
2022-12-24T17:24:59.870Z,7.87
2022-12-24T17:27:29.286Z,7.80
2022-12-24T17:30:00.127Z,7.92
2022-12-24T17:32:29.586Z,7.99
2022-12-24T17:35:03.272Z,7.98
2022-12-24T17:37:35.576Z,7.99
2022-12-24T17:40:05.367Z,7.87
2022-12-24T17:42:34.541Z,7.92
2022-12-24T17:45:05.939Z,7.92
2022-12-24T17:47:35.233Z,7.81
2022-12-24T17:50:04.868Z,7.74
2022-12-24T17:52:35.061Z,7.75
2022-12-24T17:55:04.361Z,7.80
2022-12-24T17:57:34.356Z,7.88
2022-12-24T18:00:05.815Z,7.95
2022-12-24T18:02:35.900Z,7.90
2022-12-24T18:05:05.447Z,7.84
2022-12-24T18:07:34.816Z,7.90
2022-12-24T18:10:05.086Z,7.85
2022-12-24T18:12:34.424Z,7.99
2022-12-24T18:15:06.422Z,8.04
2022-12-24T18:17:36.264Z,8.03
2022-12-24T18:20:05.914Z,8.10
2022-12-24T18:22:35.703Z,8.11
2022-12-24T18:25:05.486Z,8.11
2022-12-24T18:27:37.330Z,8.06
2022-12-24T18:30:10.906Z,7.99
2022-12-24T18:32:40.821Z,7.97
2022-12-24T18:35:11.428Z,8.00
2022-12-24T18:37:41.175Z,8.06
2022-12-24T18:40:11.935Z,8.09
2022-12-24T18:42:42.885Z,8.08
2022-12-24T18:45:14.180Z,8.05
2022-12-24T18:47:43.623Z,8.05
2022-12-24T18:50:13.120Z,8.07
2022-12-24T18:52:42.440Z,8.02
2022-12-24T18:55:12.753Z,8.03
2022-12-24T18:57:42.535Z,7.96
2022-12-24T19:00:17.540Z,7.94
2022-12-24T19:02:47.205Z,7.83
2022-12-24T19:05:18.676Z,7.93
2022-12-24T19:07:48.200Z,7.84
2022-12-24T19:10:18.191Z,7.80
2022-12-24T19:12:48.033Z,7.81
2022-12-24T19:15:20.399Z,7.77
2022-12-24T19:17:49.504Z,7.74
2022-12-24T19:20:20.114Z,7.73
2022-12-24T19:22:49.503Z,7.72
2022-12-24T19:25:22.287Z,7.68
2022-12-24T19:27:52.281Z,7.64
2022-12-24T19:30:23.539Z,7.62
2022-12-24T19:32:52.980Z,7.65
2022-12-24T19:35:22.579Z,7.62
2022-12-24T19:37:52.334Z,7.59
2022-12-24T19:40:23.209Z,7.62
2022-12-24T19:42:55.512Z,7.69
2022-12-24T19:45:26.853Z,7.62
2022-12-24T19:47:56.869Z,7.63
2022-12-24T19:50:26.354Z,7.43
2022-12-24T19:52:55.758Z,7.46
2022-12-24T19:55:25.031Z,7.51
2022-12-24T19:57:54.960Z,7.43
2022-12-24T20:00:26.280Z,7.21
2022-12-24T20:02:58.769Z,7.23
2022-12-24T20:05:28.111Z,7.32
2022-12-24T20:07:58.194Z,7.39
2022-12-24T20:10:27.547Z,7.37
2022-12-24T20:13:02.246Z,7.43
2022-12-24T20:15:43.046Z,7.33
2022-12-24T20:18:15.245Z,7.16
2022-12-24T20:20:47.455Z,7.34
2022-12-24T20:23:16.816Z,7.37
2022-12-24T20:25:48.185Z,7.28
2022-12-24T20:28:18.058Z,7.31
2022-12-24T20:30:51.133Z,7.39
2022-12-24T20:33:20.650Z,7.36
2022-12-24T20:35:50.710Z,7.41
2022-12-24T20:38:20.518Z,7.38
2022-12-24T20:40:49.918Z,7.24
2022-12-24T20:43:24.101Z,7.24
2022-12-24T20:45:58.332Z,7.20
2022-12-24T20:48:28.980Z,7.11
2022-12-24T20:50:59.776Z,7.12
2022-12-24T20:53:34.324Z,7.04
2022-12-24T20:56:03.632Z,7.05
2022-12-24T20:58:32.931Z,7.07
2022-12-24T21:01:10.127Z,7.01
2022-12-24T21:03:41.264Z,7.01
2022-12-24T21:06:11.609Z,6.96
2022-12-24T21:08:40.887Z,6.98
2022-12-24T21:11:29.753Z,6.98
2022-12-24T21:13:59.360Z,7.00
2022-12-24T21:16:31.163Z,7.00
2022-12-24T21:19:00.786Z,7.06
2022-12-24T21:21:30.197Z,7.05
2022-12-24T21:23:59.636Z,7.04
2022-12-24T21:26:29.352Z,7.04
2022-12-24T21:28:58.814Z,7.05
2022-12-24T21:31:28.429Z,7.04
2022-12-24T21:33:59.932Z,7.07
2022-12-24T21:36:31.821Z,6.95
2022-12-24T21:39:01.321Z,6.96
2022-12-24T21:41:33.529Z,7.04
2022-12-24T21:44:03.785Z,7.03
2022-12-24T21:46:33.081Z,7.04
2022-12-24T21:49:26.842Z,7.03
2022-12-24T21:51:56.234Z,7.00
2022-12-24T21:54:24.308Z,7.02
2022-12-24T21:57:11.862Z,7.03
2022-12-24T21:59:41.522Z,6.95
2022-12-24T22:02:13.466Z,6.83
2022-12-24T22:04:44.978Z,6.81
2022-12-24T22:07:41.101Z,6.69
2022-12-24T22:10:28.938Z,6.54
2022-12-24T22:13:06.486Z,6.64
2022-12-24T22:15:36.134Z,6.60
2022-12-24T22:18:05.493Z,6.69
2022-12-24T22:20:36.225Z,6.66
2022-12-24T22:23:06.383Z,6.66
2022-12-24T22:25:35.795Z,6.63
2022-12-24T22:28:11.373Z,6.66
2022-12-24T22:30:43.029Z,6.65
2022-12-24T22:33:13.310Z,6.66
2022-12-24T22:35:44.019Z,6.58
2022-12-24T22:38:13.354Z,6.53
2022-12-24T22:40:43.769Z,6.79
2022-12-24T22:43:12.976Z,6.96
2022-12-24T22:45:42.410Z,7.00
2022-12-24T22:48:11.633Z,7.17
2022-12-24T22:50:43.746Z,7.25
2022-12-24T22:53:12.813Z,7.31
2022-12-24T22:55:41.994Z,7.44
2022-12-24T22:58:11.470Z,7.60
2022-12-24T23:00:43.525Z,7.64
2022-12-24T23:03:13.759Z,7.68
2022-12-24T23:05:45.167Z,7.77
2022-12-24T23:08:15.334Z,7.67
2022-12-24T23:10:44.401Z,7.55
2022-12-24T23:13:31.992Z,7.56
2022-12-24T23:16:03.787Z,7.44
2022-12-24T23:18:34.259Z,7.58
2022-12-24T23:21:08.616Z,7.43
2022-12-24T23:23:37.912Z,7.39
2022-12-24T23:26:13.053Z,7.34
2022-12-24T23:28:42.575Z,7.39
2022-12-24T23:31:12.010Z,7.27
2022-12-24T23:33:41.152Z,7.23
2022-12-24T23:36:12.290Z,7.31
2022-12-24T23:38:41.990Z,7.32
2022-12-24T23:41:11.819Z,7.28
2022-12-24T23:43:41.470Z,7.20
2022-12-24T23:46:14.371Z,7.21
2022-12-24T23:48:43.835Z,7.12
2022-12-24T23:51:16.910Z,6.99
2022-12-24T23:53:45.675Z,6.85
2022-12-24T23:56:15.563Z,6.79
2022-12-24T23:58:47.428Z,6.68
